11°C
Woerden, The Nederlands
Taal:  Nederlands
Updated22/10/2018 18:55 
 
Station Historical Data
Daily Summary for October 12, 2018 Units:  Both    English   Metric
Next Day »
Daily Weekly Monthly Yearly Custom
  High: Low: Average:
Temperature: 72.7 °F /  22.6 °C 56.7 °F /  13.7 °C 64.9 °F /  18.3 °C
Dew Point: 61 °F /  16.1 °C 53.1 °F /  11.7 °C 57.6 °F /  14.2 °C
Humidity: 89% 59% 78%
Wind Speed: 22mph /  35.4km/h - 11.2mph /  18.1km/h
Wind Gust: 18mph /  29.0km/h - -
Wind- - SSE
Pressure: 30 in /  1017.2 hPa 29.8 in /  1009.8 hPa -
Precipitation: 0.02 in /  0.6 mm    
Historical Graphs
 
 
Tabular Data for October 12, 2018
Time Temperature Dew Point Pressure Wind Wind Speed Wind Gust Humidity Rainfall Rate (Hourly) solar Conditions
00:04 63.5 °F /  17.5 °C 56.1 °F /  13.4 °C 29.8in /  1009.8hPa SE 11.5mph /  18.5km/h 7.3mph /  11.7km/h 77% 0in /  0.0mm 0.00 W/m2 CLR
00:09 63.7 °F /  17.6 °C 55.9 °F /  13.3 °C 29.8in /  1009.9hPa SE 10.4mph /  16.7km/h 7.5mph /  12.1km/h 76% 0in /  0.0mm 0.00 W/m2 CLR
00:14 63.7 °F /  17.6 °C 55.9 °F /  13.3 °C 29.8in /  1010.0hPa SSE 12mph /  19.3km/h 7.3mph /  11.7km/h 76% 0in /  0.0mm 0.00 W/m2 CLR
00:19 63.9 °F /  17.7 °C 56.1 °F /  13.4 °C 29.8in /  1009.9hPa SE 10.4mph /  16.7km/h 8mph /  12.9km/h 76% 0in /  0.0mm 0.00 W/m2 CLR
00:24 64 °F /  17.8 °C 56.3 °F /  13.5 °C 29.8in /  1010.1hPa SE 10.4mph /  16.7km/h 8.1mph /  13.0km/h 76% 0in /  0.0mm 0.00 W/m2 CLR
00:29 64.2 °F /  17.9 °C 56.1 °F /  13.4 °C 29.8in /  1010.1hPa SSE 10.4mph /  16.7km/h 7.3mph /  11.7km/h 75% 0in /  0.0mm 0.00 W/m2 CLR
00:34 64.4 °F /  18.0 °C 56.3 °F /  13.5 °C 29.8in /  1010.4hPa South 10mph /  16.1km/h 5.7mph /  9.2km/h 75% 0in /  0.0mm 0.00 W/m2 CLR
00:38 64.4 °F /  18.0 °C 56.3 °F /  13.5 °C 29.8in /  1010.5hPa South 6.9mph /  11.1km/h 4.4mph /  7.1km/h 75% 0in /  0.0mm 0.00 W/m2 CLR
00:44 64 °F /  17.8 °C 55.9 °F /  13.3 °C 29.8in /  1010.5hPa South 7mph /  11.3km/h 4.5mph /  7.2km/h 75% 0in /  0.0mm 0.00 W/m2 CLR
00:49 64 °F /  17.8 °C 56.3 °F /  13.5 °C 29.8in /  1010.7hPa South 6mph /  9.7km/h 4.3mph /  6.9km/h 76% 0in /  0.0mm 0.00 W/m2 CLR
00:54 64 °F /  17.8 °C 56.3 °F /  13.5 °C 29.9in /  1010.8hPa South 6mph /  9.7km/h 3.7mph /  6.0km/h 76% 0in /  0.0mm 0.00 W/m2 CLR
00:59 64 °F /  17.8 °C 56.3 °F /  13.5 °C 29.9in /  1011.1hPa South 7mph /  11.3km/h 3.8mph /  6.1km/h 76% 0in /  0.0mm 0.00 W/m2 CLR
01:04 64 °F /  17.8 °C 56.7 °F /  13.7 °C 29.9in /  1011.2hPa SSE 10mph /  16.1km/h 4.7mph /  7.6km/h 77% 0in /  0.0mm 0.00 W/m2 CLR
01:09 63.9 °F /  17.7 °C 56.5 °F /  13.6 °C 29.9in /  1011.3hPa SSE 11.5mph /  18.5km/h 6.2mph /  10.0km/h 77% 0in /  0.0mm 0.00 W/m2 CLR
01:14 63.7 °F /  17.6 °C 56.5 °F /  13.6 °C 29.9in /  1011.4hPa SSE 11.5mph /  18.5km/h 6mph /  9.7km/h 77% 0in /  0.0mm 0.00 W/m2 CLR
01:19 63.3 °F /  17.4 °C 56.8 °F /  13.8 °C 29.9in /  1011.3hPa South 10.4mph /  16.7km/h 6.4mph /  10.3km/h 79% 0in /  0.0mm 0.00 W/m2 CLR
01:24 63.5 °F /  17.5 °C 56.8 °F /  13.8 °C 29.9in /  1011.3hPa SSE 12.7mph /  20.4km/h 8.8mph /  14.2km/h 79% 0in /  0.0mm 0.00 W/m2 CLR
01:29 63.9 °F /  17.7 °C 57.2 °F /  14.0 °C 29.9in /  1011.1hPa SSW 12.7mph /  20.4km/h 9.5mph /  15.3km/h 79% 0in /  0.0mm 0.00 W/m2 CLR
01:34 63.7 °F /  17.6 °C 57.4 °F /  14.1 °C 29.9in /  1011.1hPa SSE 13mph /  20.9km/h 7.6mph /  12.2km/h 80% 0.01in /  0.2mm 0.00 W/m2 RA
01:39 63.3 °F /  17.4 °C 57 °F /  13.9 °C 29.9in /  1011.1hPa SSE 11.5mph /  18.5km/h 8.3mph /  13.4km/h 80% 0.01in /  0.2mm 0.00 W/m2 RA
01:44 63.1 °F /  17.3 °C 57.2 °F /  14.0 °C 29.8in /  1010.7hPa South 11.5mph /  18.5km/h 9.8mph /  15.8km/h 81% 0.02in /  0.4mm 0.00 W/m2 RA
01:49 62.8 °F /  17.1 °C 57.2 °F /  14.0 °C 29.8in /  1010.6hPa South 11.5mph /  18.5km/h 8.1mph /  13.0km/h 82% 0.02in /  0.4mm 0.00 W/m2 RA
01:54 62.4 °F /  16.9 °C 57.4 °F /  14.1 °C 29.8in /  1010.7hPa SSE 10.4mph /  16.7km/h 6.7mph /  10.8km/h 83% 0.02in /  0.4mm 0.00 W/m2 RA
01:59 62.2 °F /  16.8 °C 57 °F /  13.9 °C 29.8in /  1010.6hPa SSE 9.2mph /  14.8km/h 5.6mph /  9.0km/h 83% 0.02in /  0.4mm 0.00 W/m2
02:04 62.1 °F /  16.7 °C 57.2 °F /  14.0 °C 29.8in /  1010.6hPa SSE 11mph /  17.7km/h 4.3mph /  6.9km/h 84% 0.02in /  0.4mm 0.00 W/m2 CLR
02:09 62.1 °F /  16.7 °C 57.2 °F /  14.0 °C 29.8in /  1010.7hPa SSE 8.1mph /  13.0km/h 5.3mph /  8.5km/h 84% 0.02in /  0.4mm 0.00 W/m2 CLR
02:14 62.1 °F /  16.7 °C 57 °F /  13.9 °C 29.9in /  1010.9hPa SSE 8.1mph /  13.0km/h 5.3mph /  8.5km/h 84% 0.02in /  0.4mm 0.00 W/m2 CLR
02:19 62.1 °F /  16.7 °C 57.2 °F /  14.0 °C 29.9in /  1011.0hPa SSE 8.1mph /  13.0km/h 5.7mph /  9.2km/h 84% 0.02in /  0.4mm 0.00 W/m2 CLR
02:24 62.1 °F /  16.7 °C 57.6 °F /  14.2 °C 29.9in /  1011.2hPa SSE 8.1mph /  13.0km/h 6mph /  9.7km/h 85% 0.02in /  0.4mm 0.00 W/m2 CLR
02:29 62.1 °F /  16.7 °C 57.6 °F /  14.2 °C 29.9in /  1011.1hPa SSE 9.2mph /  14.8km/h 6mph /  9.7km/h 85% 0.02in /  0.4mm 0.00 W/m2 CLR
02:34 62.1 °F /  16.7 °C 57.6 °F /  14.2 °C 29.9in /  1011.3hPa SSE 10.4mph /  16.7km/h 6.4mph /  10.3km/h 85% 0.02in /  0.4mm 0.00 W/m2 CLR
02:39 62.1 °F /  16.7 °C 57.6 °F /  14.2 °C 29.9in /  1011.3hPa SSE 10.4mph /  16.7km/h 7.1mph /  11.4km/h 85% 0.02in /  0.4mm 0.00 W/m2 CLR
02:44 62.1 °F /  16.7 °C 57.6 °F /  14.2 °C 29.9in /  1011.4hPa SSE 10.4mph /  16.7km/h 6.7mph /  10.8km/h 85% 0.02in /  0.4mm 0.00 W/m2 CLR
02:49 62.1 °F /  16.7 °C 57.4 °F /  14.1 °C 29.9in /  1011.5hPa South 8.1mph /  13.0km/h 5.8mph /  9.3km/h 85% 0.01in /  0.2mm 0.00 W/m2 CLR
02:54 62.2 °F /  16.8 °C 57.7 °F /  14.3 °C 29.9in /  1011.4hPa SSE 13.8mph /  22.2km/h 8.2mph /  13.2km/h 85% 0.01in /  0.2mm 0.00 W/m2 CLR
02:59 62.8 °F /  17.1 °C 57.7 °F /  14.3 °C 29.9in /  1011.4hPa SSE 13.8mph /  22.2km/h 9.7mph /  15.6km/h 84% 0in /  0.0mm 0.00 W/m2 CLR
03:04 63 °F /  17.2 °C 57.7 °F /  14.3 °C 29.9in /  1011.4hPa SSE 12mph /  19.3km/h 7.8mph /  12.6km/h 83% 0in /  0.0mm 0.00 W/m2 CLR
03:09 63.1 °F /  17.3 °C 57.9 °F /  14.4 °C 29.9in /  1011.4hPa SSE 13.8mph /  22.2km/h 8.2mph /  13.2km/h 83% 0in /  0.0mm 0.00 W/m2 CLR
03:14 63.3 °F /  17.4 °C 57.7 °F /  14.3 °C 29.9in /  1011.5hPa SSE 15mph /  24.1km/h 10mph /  16.1km/h 82% 0in /  0.0mm 0.00 W/m2 CLR
03:19 63.3 °F /  17.4 °C 57.7 °F /  14.3 °C 29.9in /  1011.5hPa SSE 15mph /  24.1km/h 9.3mph /  15.0km/h 82% 0in /  0.0mm 0.00 W/m2 CLR
03:24 63.1 °F /  17.3 °C 57.6 °F /  14.2 °C 29.9in /  1011.5hPa SSE 12mph /  19.3km/h 8.9mph /  14.3km/h 82% 0in /  0.0mm 0.00 W/m2 CLR
03:29 63.1 °F /  17.3 °C 57.9 °F /  14.4 °C 29.9in /  1011.5hPa SSE 11.5mph /  18.5km/h 8.6mph /  13.8km/h 83% 0in /  0.0mm 0.00 W/m2 CLR
03:34 63 °F /  17.2 °C 57.7 °F /  14.3 °C 29.9in /  1011.5hPa SSW 12.7mph /  20.4km/h 8.6mph /  13.8km/h 83% 0in /  0.0mm 0.00 W/m2 CLR
03:39 63 °F /  17.2 °C 57.7 °F /  14.3 °C 29.9in /  1011.6hPa SSE 13mph /  20.9km/h 9.3mph /  15.0km/h 83% 0in /  0.0mm 0.00 W/m2 CLR
03:44 63 °F /  17.2 °C 57.7 °F /  14.3 °C 29.9in /  1011.6hPa South 12.7mph /  20.4km/h 8.5mph /  13.7km/h 83% 0in /  0.0mm 0.00 W/m2 CLR
03:49 62.8 °F /  17.1 °C 57.6 °F /  14.2 °C 29.9in /  1011.8hPa SSW 11.5mph /  18.5km/h 8.6mph /  13.8km/h 83% 0in /  0.0mm 0.00 W/m2 CLR
03:54 62.4 °F /  16.9 °C 57.6 °F /  14.2 °C 29.9in /  1011.9hPa SSE 13.8mph /  22.2km/h 8.9mph /  14.3km/h 84% 0in /  0.0mm 0.00 W/m2 CLR
03:59 62.2 °F /  16.8 °C 57.4 °F /  14.1 °C 29.9in /  1011.9hPa SSW 15mph /  24.1km/h 8.3mph /  13.4km/h 84% 0in /  0.0mm 0.00 W/m2 CLR
04:04 62.2 °F /  16.8 °C 57.4 °F /  14.1 °C 29.9in /  1011.8hPa SSW 11.5mph /  18.5km/h 7.7mph /  12.4km/h 84% 0in /  0.0mm 0.00 W/m2 CLR
04:07 62.1 °F /  16.7 °C 57.2 °F /  14.0 °C 29.9in /  1011.9hPa SSE 11.5mph /  18.5km/h 7.9mph /  12.7km/h 84% 0in /  0.0mm 0.00 W/m2 CLR
04:14 62.1 °F /  16.7 °C 57 °F /  13.9 °C 29.9in /  1012.0hPa South 10.4mph /  16.7km/h 5.7mph /  9.2km/h 84% 0in /  0.0mm 0.00 W/m2 CLR
04:19 61.9 °F /  16.6 °C 56.8 °F /  13.8 °C 29.9in /  1012.1hPa South 11mph /  17.7km/h 5.8mph /  9.3km/h 84% 0in /  0.0mm 0.00 W/m2 CLR
04:24 61.7 °F /  16.5 °C 56.8 °F /  13.8 °C 29.9in /  1012.1hPa SW 11mph /  17.7km/h 5.3mph /  8.5km/h 84% 0in /  0.0mm 0.00 W/m2 CLR
04:29 61.5 °F /  16.4 °C 56.7 °F /  13.7 °C 29.9in /  1012.1hPa SW 8.1mph /  13.0km/h 6.1mph /  9.8km/h 84% 0in /  0.0mm 0.00 W/m2 CLR
04:34 61.5 °F /  16.4 °C 56.7 °F /  13.7 °C 29.9in /  1012.1hPa South 11mph /  17.7km/h 6.3mph /  10.1km/h 84% 0in /  0.0mm 0.00 W/m2 CLR
04:39 61.3 °F /  16.3 °C 56.5 °F /  13.6 °C 29.9in /  1012.2hPa SSW 10.4mph /  16.7km/h 5.4mph /  8.7km/h 84% 0in /  0.0mm 0.00 W/m2 CLR
04:43 61.2 °F /  16.2 °C 56.3 °F /  13.5 °C 29.9in /  1012.4hPa SSE 9.2mph /  14.8km/h 4.5mph /  7.2km/h 84% 0in /  0.0mm 0.00 W/m2 CLR
04:49 61 °F /  16.1 °C 56.1 °F /  13.4 °C 29.9in /  1012.5hPa SSW 9.2mph /  14.8km/h 5.8mph /  9.3km/h 84% 0in /  0.0mm 0.00 W/m2 CLR
04:53 60.8 °F /  16.0 °C 55.9 °F /  13.3 °C 29.9in /  1012.5hPa South 8.1mph /  13.0km/h 4.7mph /  7.6km/h 84% 0in /  0.0mm 0.00 W/m2 CLR
04:59 60.6 °F /  15.9 °C 55.8 °F /  13.2 °C 29.9in /  1012.5hPa South 7mph /  11.3km/h 3.4mph /  5.5km/h 84% 0in /  0.0mm 0.00 W/m2 CLR
05:04 60.4 °F /  15.8 °C 55.6 °F /  13.1 °C 29.9in /  1012.6hPa South 6.9mph /  11.1km/h 4.4mph /  7.1km/h 84% 0in /  0.0mm 0.00 W/m2 CLR
05:08 60.3 °F /  15.7 °C 55.8 °F /  13.2 °C 29.9in /  1012.7hPa SSW 6.9mph /  11.1km/h 4mph /  6.4km/h 85% 0in /  0.0mm 0.00 W/m2 CLR
05:14 60.3 °F /  15.7 °C 55.8 °F /  13.2 °C 29.9in /  1012.8hPa SSE 6mph /  9.7km/h 3.2mph /  5.1km/h 85% 0in /  0.0mm 0.00 W/m2 CLR
05:19 60.1 °F /  15.6 °C 55.6 °F /  13.1 °C 29.9in /  1012.8hPa SSW 8.1mph /  13.0km/h 5mph /  8.0km/h 85% 0in /  0.0mm 0.00 W/m2 CLR
05:24 60.1 °F /  15.6 °C 55.6 °F /  13.1 °C 29.9in /  1012.8hPa South 9.2mph /  14.8km/h 5mph /  8.0km/h 85% 0in /  0.0mm 0.00 W/m2 CLR
05:29 59.7 °F /  15.4 °C 55 °F /  12.8 °C 29.9in /  1012.9hPa SSE 9.2mph /  14.8km/h 5mph /  8.0km/h 84% 0in /  0.0mm 0.00 W/m2 CLR
05:33 59.5 °F /  15.3 °C 55 °F /  12.8 °C 29.9in /  1012.9hPa SSE 6.9mph /  11.1km/h 4.9mph /  7.9km/h 85% 0in /  0.0mm 0.00 W/m2 CLR
05:39 59.2 °F /  15.1 °C 54.7 °F /  12.6 °C 29.9in /  1012.8hPa SSE 7mph /  11.3km/h 5mph /  8.0km/h 85% 0in /  0.0mm 0.00 W/m2 CLR
05:44 59 °F /  15.0 °C 54.5 °F /  12.5 °C 29.9in /  1012.8hPa South 6mph /  9.7km/h 4.8mph /  7.7km/h 85% 0in /  0.0mm 0.00 W/m2 CLR
05:49 58.6 °F /  14.8 °C 54.1 °F /  12.3 °C 29.9in /  1013.0hPa SSE 9.2mph /  14.8km/h 5.2mph /  8.4km/h 85% 0in /  0.0mm 0.00 W/m2 CLR
05:54 58.5 °F /  14.7 °C 54 °F /  12.2 °C 29.9in /  1013.0hPa SSE 9.2mph /  14.8km/h 5.7mph /  9.2km/h 85% 0in /  0.0mm 0.00 W/m2 CLR
05:59 58.3 °F /  14.6 °C 54 °F /  12.2 °C 29.9in /  1013.1hPa SSE 9.2mph /  14.8km/h 6.1mph /  9.8km/h 86% 0in /  0.0mm 0.00 W/m2 CLR
06:04 57.9 °F /  14.4 °C 53.8 °F /  12.1 °C 29.9in /  1013.2hPa SSE 9.2mph /  14.8km/h 6.4mph /  10.3km/h 86% 0in /  0.0mm 0.00 W/m2 CLR
06:08 57.9 °F /  14.4 °C 53.8 °F /  12.1 °C 29.9in /  1013.3hPa South 8.1mph /  13.0km/h 5.6mph /  9.0km/h 86% 0in /  0.0mm 0.00 W/m2 CLR
06:14 57.6 °F /  14.2 °C 53.4 °F /  11.9 °C 29.9in /  1013.4hPa South 6.9mph /  11.1km/h 4.6mph /  7.4km/h 86% 0in /  0.0mm 0.00 W/m2 CLR
06:19 57.6 °F /  14.2 °C 53.2 °F /  11.8 °C 29.9in /  1013.4hPa SSE 8mph /  12.9km/h 4.9mph /  7.9km/h 86% 0in /  0.0mm 0.00 W/m2 CLR
06:24 57.6 °F /  14.2 °C 53.2 °F /  11.8 °C 29.9in /  1013.5hPa South 9mph /  14.5km/h 5.5mph /  8.8km/h 86% 0in /  0.0mm 0.00 W/m2 CLR
06:29 57.4 °F /  14.1 °C 53.1 °F /  11.7 °C 29.9in /  1013.6hPa SSE 8mph /  12.9km/h 5.9mph /  9.5km/h 86% 0in /  0.0mm 0.00 W/m2 CLR
06:34 57.2 °F /  14.0 °C 53.4 °F /  11.9 °C 29.9in /  1013.6hPa South 7mph /  11.3km/h 6mph /  9.7km/h 87% 0in /  0.0mm 0.00 W/m2 CLR
06:39 57 °F /  13.9 °C 53.2 °F /  11.8 °C 29.9in /  1013.8hPa SSE 7mph /  11.3km/h 5.3mph /  8.5km/h 87% 0in /  0.0mm 0.00 W/m2 CLR
06:44 56.8 °F /  13.8 °C 53.1 °F /  11.7 °C 29.9in /  1013.8hPa SSE 7mph /  11.3km/h 5.5mph /  8.8km/h 87% 0in /  0.0mm 0.00 W/m2 CLR
06:49 56.8 °F /  13.8 °C 53.1 °F /  11.7 °C 29.9in /  1013.8hPa SSE 6.9mph /  11.1km/h 5.6mph /  9.0km/h 87% 0in /  0.0mm 0.00 W/m2 CLR
06:54 56.8 °F /  13.8 °C 53.1 °F /  11.7 °C 29.9in /  1013.8hPa SSE 8mph /  12.9km/h 4.6mph /  7.4km/h 87% 0in /  0.0mm 0.00 W/m2 CLR
06:59 56.8 °F /  13.8 °C 53.1 °F /  11.7 °C 29.9in /  1013.9hPa SSE 8mph /  12.9km/h 5.4mph /  8.7km/h 87% 0in /  0.0mm 0.00 W/m2 CLR
07:04 56.8 °F /  13.8 °C 53.1 °F /  11.7 °C 29.9in /  1013.9hPa SSE 8.1mph /  13.0km/h 6.1mph /  9.8km/h 87% 0in /  0.0mm 0.00 W/m2 CLR
07:07 56.8 °F /  13.8 °C 53.1 °F /  11.7 °C 29.9in /  1013.9hPa SSE 8.1mph /  13.0km/h 5.8mph /  9.3km/h 87% 0in /  0.0mm 0.00 W/m2 CLR
07:13 56.8 °F /  13.8 °C 53.2 °F /  11.8 °C 29.9in /  1013.9hPa SSE 6.9mph /  11.1km/h 5.1mph /  8.2km/h 88% 0in /  0.0mm 0.00 W/m2 CLR
07:19 56.8 °F /  13.8 °C 53.2 °F /  11.8 °C 29.9in /  1014.1hPa SSE 6.9mph /  11.1km/h 5.2mph /  8.4km/h 88% 0in /  0.0mm 0.00 W/m2 CLR
07:24 56.7 °F /  13.7 °C 53.1 °F /  11.7 °C 30in /  1014.2hPa SSE 7mph /  11.3km/h 4.8mph /  7.7km/h 88% 0in /  0.0mm 0.00 W/m2 CLR
07:29 56.7 °F /  13.7 °C 53.1 °F /  11.7 °C 30in /  1014.3hPa SSE 6.9mph /  11.1km/h 5.1mph /  8.2km/h 88% 0in /  0.0mm 0.00 W/m2 CLR
07:34 56.7 °F /  13.7 °C 53.2 °F /  11.8 °C 30in /  1014.4hPa SSE 8.1mph /  13.0km/h 5.8mph /  9.3km/h 88% 0in /  0.0mm 0.00 W/m2 CLR
07:39 56.8 °F /  13.8 °C 53.2 °F /  11.8 °C 30in /  1014.5hPa SSE 8.1mph /  13.0km/h 6.2mph /  10.0km/h 88% 0in /  0.0mm 0.00 W/m2 CLR
07:44 56.8 °F /  13.8 °C 53.2 °F /  11.8 °C 30in /  1014.6hPa SSE 8.1mph /  13.0km/h 6mph /  9.7km/h 88% 0in /  0.0mm 0.00 W/m2 CLR
07:49 56.8 °F /  13.8 °C 53.4 °F /  11.9 °C 30in /  1014.8hPa SSE 8.1mph /  13.0km/h 6.2mph /  10.0km/h 88% 0in /  0.0mm 7.00 W/m2 CLR
07:54 56.8 °F /  13.8 °C 53.4 °F /  11.9 °C 30in /  1014.8hPa SSE 8.1mph /  13.0km/h 6.6mph /  10.6km/h 88% 0in /  0.0mm 11.00 W/m2 CLR
07:59 56.8 °F /  13.8 °C 53.4 °F /  11.9 °C 30in /  1014.8hPa SSE 8.1mph /  13.0km/h 6mph /  9.7km/h 88% 0in /  0.0mm 9.00 W/m2 CLR
08:04 56.8 °F /  13.8 °C 53.2 °F /  11.8 °C 30in /  1014.8hPa South 9.2mph /  14.8km/h 6.2mph /  10.0km/h 88% 0in /  0.0mm 11.00 W/m2 OVC
08:09 56.8 °F /  13.8 °C 53.8 °F /  12.1 °C 30in /  1015.0hPa SSE 10.4mph /  16.7km/h 6.5mph /  10.5km/h 89% 0in /  0.0mm 14.00 W/m2 OVC
08:14 56.8 °F /  13.8 °C 53.4 °F /  11.9 °C 30in /  1015.0hPa SSE 10.4mph /  16.7km/h 7.2mph /  11.6km/h 88% 0in /  0.0mm 16.00 W/m2 OVC
08:19 56.8 °F /  13.8 °C 53.8 °F /  12.1 °C 30in /  1015.0hPa SSE 10mph /  16.1km/h 7.5mph /  12.1km/h 89% 0in /  0.0mm 21.00 W/m2 OVC
08:24 57 °F /  13.9 °C 54 °F /  12.2 °C 30in /  1015.1hPa South 10.4mph /  16.7km/h 6.9mph /  11.1km/h 89% 0in /  0.0mm 26.00 W/m2 OVC
08:29 57 °F /  13.9 °C 54 °F /  12.2 °C 30in /  1015.0hPa South 11.5mph /  18.5km/h 7.5mph /  12.1km/h 89% 0in /  0.0mm 30.00 W/m2 OVC
08:34 57.2 °F /  14.0 °C 53.8 °F /  12.1 °C 30in /  1015.0hPa SSE 11.5mph /  18.5km/h 7.4mph /  11.9km/h 88% 0in /  0.0mm 39.00 W/m2 OVC
08:39 57.4 °F /  14.1 °C 54.1 °F /  12.3 °C 30in /  1015.3hPa SSE 10mph /  16.1km/h 6.8mph /  10.9km/h 89% 0in /  0.0mm 51.00 W/m2 OVC
08:44 57.6 °F /  14.2 °C 54.1 °F /  12.3 °C 30in /  1015.3hPa South 10.4mph /  16.7km/h 8mph /  12.9km/h 88% 0in /  0.0mm 62.00 W/m2 OVC
08:49 57.7 °F /  14.3 °C 54.1 °F /  12.3 °C 30in /  1015.2hPa SSE 10.4mph /  16.7km/h 8.3mph /  13.4km/h 88% 0in /  0.0mm 63.00 W/m2 OVC
08:54 57.7 °F /  14.3 °C 54.3 °F /  12.4 °C 30in /  1015.5hPa SSE 10.4mph /  16.7km/h 8.3mph /  13.4km/h 88% 0in /  0.0mm 77.00 W/m2 OVC
08:59 57.7 °F /  14.3 °C 54.3 °F /  12.4 °C 30in /  1015.4hPa SSE 11mph /  17.7km/h 7.9mph /  12.7km/h 88% 0in /  0.0mm 86.00 W/m2 OVC
09:04 57.9 °F /  14.4 °C 54.5 °F /  12.5 °C 30in /  1015.6hPa SSE 11mph /  17.7km/h 8mph /  12.9km/h 88% 0in /  0.0mm 90.00 W/m2 OVC
09:09 58.3 °F /  14.6 °C 54.7 °F /  12.6 °C 30in /  1015.6hPa South 12mph /  19.3km/h 7.8mph /  12.6km/h 88% 0in /  0.0mm 102.00 W/m2 BKN
09:11 58.3 °F /  14.6 °C 54.9 °F /  12.7 °C 30in /  1015.6hPa SSE 11.5mph /  18.5km/h 8.4mph /  13.5km/h 88% 0in /  0.0mm 98.00 W/m2 SCT
10:30 58.6 °F /  14.8 °C 54.7 °F /  12.6 °C 30in /  1015.8hPa SSE 9mph /  14.5km/h 18mph /  29.0km/h 87% 0in /  0.0mm 87.00 W/m2 CLR
11:00 59.9 °F /  15.5 °C 55.8 °F /  13.2 °C 30in /  1015.9hPa SSE 12mph /  19.3km/h 17mph /  27.4km/h 86% 0.01in /  0.2mm 206.00 W/m2 CLR
13:39 70 °F /  21.1 °C 59 °F /  15.0 °C 30in /  1016.3hPa South 18.4mph /  29.6km/h 15.5mph /  24.9km/h 68% 0in /  0.0mm 366.00 W/m2 OVC
13:43 70 °F /  21.1 °C 57.9 °F /  14.4 °C 30in /  1016.3hPa SSE 18.4mph /  29.6km/h 14.2mph /  22.8km/h 66% 0in /  0.0mm 348.00 W/m2 CLR
13:49 69.6 °F /  20.9 °C 57.7 °F /  14.3 °C 30in /  1016.2hPa SE 20.7mph /  33.3km/h 13mph /  20.9km/h 66% 0in /  0.0mm 323.00 W/m2 FEW
13:54 69.6 °F /  20.9 °C 58.3 °F /  14.6 °C 30in /  1016.2hPa SSE 20.7mph /  33.3km/h 14.9mph /  24.0km/h 67% 0in /  0.0mm 248.00 W/m2 FEW
13:59 69.8 °F /  21.0 °C 57.9 °F /  14.4 °C 30in /  1016.2hPa SSE 19.6mph /  31.5km/h 14.7mph /  23.7km/h 66% 0in /  0.0mm 383.00 W/m2 FEW
14:04 70 °F /  21.1 °C 57.9 °F /  14.4 °C 30in /  1016.1hPa SSE 19.6mph /  31.5km/h 13.3mph /  21.4km/h 66% 0in /  0.0mm 387.00 W/m2 FEW
14:09 70 °F /  21.1 °C 58.1 °F /  14.5 °C 30in /  1016.1hPa South 17.3mph /  27.8km/h 13mph /  20.9km/h 66% 0in /  0.0mm 397.00 W/m2 CLR
14:14 70.2 °F /  21.2 °C 57.4 °F /  14.1 °C 30in /  1016.3hPa SSE 19.6mph /  31.5km/h 12.1mph /  19.5km/h 64% 0in /  0.0mm 387.00 W/m2 CLR
14:18 70.2 °F /  21.2 °C 57.4 °F /  14.1 °C 30in /  1016.1hPa SSE 19.6mph /  31.5km/h 14.1mph /  22.7km/h 64% 0in /  0.0mm 410.00 W/m2 CLR
14:24 70.3 °F /  21.3 °C 57.6 °F /  14.2 °C 30in /  1016.1hPa SSE 18.4mph /  29.6km/h 13.4mph /  21.6km/h 64% 0in /  0.0mm 483.00 W/m2 CLR
14:29 70.7 °F /  21.5 °C 57.9 °F /  14.4 °C 30in /  1016.2hPa SSE 18.4mph /  29.6km/h 13.9mph /  22.4km/h 64% 0in /  0.0mm 432.00 W/m2 CLR
14:34 70.9 °F /  21.6 °C 57.7 °F /  14.3 °C 30in /  1016.2hPa SSW 22mph /  35.4km/h 12.8mph /  20.6km/h 63% 0in /  0.0mm 364.00 W/m2 CLR
14:39 70.9 °F /  21.6 °C 57.7 °F /  14.3 °C 30in /  1016.1hPa SSE 16mph /  25.7km/h 11.5mph /  18.5km/h 63% 0in /  0.0mm 360.00 W/m2 CLR
14:44 70.9 °F /  21.6 °C 57 °F /  13.9 °C 30in /  1016.2hPa SSE 19mph /  30.6km/h 11.9mph /  19.1km/h 62% 0in /  0.0mm 352.00 W/m2 FEW
14:49 70.9 °F /  21.6 °C 57.6 °F /  14.2 °C 30in /  1016.3hPa SSE 16.1mph /  25.9km/h 12mph /  19.3km/h 63% 0in /  0.0mm 343.00 W/m2 FEW
14:54 71.1 °F /  21.7 °C 57.4 °F /  14.1 °C 30in /  1016.3hPa SSE 18mph /  29.0km/h 11.7mph /  18.8km/h 62% 0in /  0.0mm 388.00 W/m2 FEW
14:59 71.1 °F /  21.7 °C 57.4 °F /  14.1 °C 30in /  1016.2hPa SSE 18.4mph /  29.6km/h 12mph /  19.3km/h 62% 0in /  0.0mm 383.00 W/m2 FEW
15:04 71.2 °F /  21.8 °C 56.7 °F /  13.7 °C 30in /  1016.2hPa SSE 18.4mph /  29.6km/h 13mph /  20.9km/h 60% 0in /  0.0mm 404.00 W/m2 CLR
15:09 71.4 °F /  21.9 °C 56.3 °F /  13.5 °C 30in /  1016.3hPa SSE 17.3mph /  27.8km/h 13.1mph /  21.1km/h 59% 0in /  0.0mm 373.00 W/m2 CLR
15:14 71.8 °F /  22.1 °C 57 °F /  13.9 °C 30in /  1016.3hPa SSE 17.3mph /  27.8km/h 10.6mph /  17.1km/h 60% 0in /  0.0mm 381.00 W/m2 CLR
15:19 71.8 °F /  22.1 °C 57 °F /  13.9 °C 30in /  1016.2hPa SSE 17.3mph /  27.8km/h 12.6mph /  20.3km/h 60% 0in /  0.0mm 392.00 W/m2 CLR
15:24 71.8 °F /  22.1 °C 57.2 °F /  14.0 °C 30in /  1016.2hPa SSE 17.3mph /  27.8km/h 12mph /  19.3km/h 60% 0in /  0.0mm 385.00 W/m2 CLR
15:29 72.1 °F /  22.3 °C 57.9 °F /  14.4 °C 30in /  1016.3hPa SSE 16.1mph /  25.9km/h 11mph /  17.7km/h 61% 0in /  0.0mm 374.00 W/m2 CLR
15:34 72.1 °F /  22.3 °C 57.6 °F /  14.2 °C 30in /  1016.3hPa SSE 18.4mph /  29.6km/h 12.1mph /  19.5km/h 60% 0in /  0.0mm 404.00 W/m2 CLR
15:39 72.3 °F /  22.4 °C 57.6 °F /  14.2 °C 30in /  1016.2hPa SSE 17mph /  27.4km/h 10mph /  16.1km/h 60% 0in /  0.0mm 376.00 W/m2 CLR
15:44 72.3 °F /  22.4 °C 57.2 °F /  14.0 °C 30in /  1016.2hPa South 17.3mph /  27.8km/h 13mph /  20.9km/h 59% 0in /  0.0mm 373.00 W/m2 CLR
15:49 72.3 °F /  22.4 °C 57.2 °F /  14.0 °C 30in /  1016.4hPa SSE 19.6mph /  31.5km/h 13.4mph /  21.6km/h 59% 0in /  0.0mm 262.00 W/m2 CLR
15:54 72 °F /  22.2 °C 57.4 °F /  14.1 °C 30in /  1016.2hPa South 19.6mph /  31.5km/h 10.1mph /  16.3km/h 60% 0in /  0.0mm 109.00 W/m2 SCT
15:59 71.4 °F /  21.9 °C 57.4 °F /  14.1 °C 30in /  1016.3hPa SSE 15mph /  24.1km/h 9.6mph /  15.4km/h 61% 0in /  0.0mm 190.00 W/m2 SCT
16:04 71.2 °F /  21.8 °C 57.2 °F /  14.0 °C 30in /  1016.2hPa SSE 11.5mph /  18.5km/h 8.8mph /  14.2km/h 61% 0in /  0.0mm 265.00 W/m2 BKN
16:08 71.4 °F /  21.9 °C 57.7 °F /  14.3 °C 30in /  1016.2hPa SSE 12mph /  19.3km/h 9.3mph /  15.0km/h 62% 0in /  0.0mm 188.00 W/m2 BKN
16:14 71.8 °F /  22.1 °C 58.5 °F /  14.7 °C 30in /  1016.2hPa South 12mph /  19.3km/h 8.9mph /  14.3km/h 63% 0in /  0.0mm 376.00 W/m2 SCT
16:19 72 °F /  22.2 °C 58.3 °F /  14.6 °C 30in /  1016.2hPa SSE 12.7mph /  20.4km/h 10.4mph /  16.7km/h 62% 0in /  0.0mm 355.00 W/m2 FEW
16:24 72.1 °F /  22.3 °C 57.9 °F /  14.4 °C 30in /  1016.1hPa SSE 12.7mph /  20.4km/h 9.6mph /  15.4km/h 61% 0in /  0.0mm 230.00 W/m2 FEW
16:29 72.1 °F /  22.3 °C 58.5 °F /  14.7 °C 30in /  1016.1hPa SSE 12.7mph /  20.4km/h 9.7mph /  15.6km/h 62% 0in /  0.0mm 323.00 W/m2 FEW
16:34 72.3 °F /  22.4 °C 58.5 °F /  14.7 °C 30in /  1016.1hPa SSE 11.5mph /  18.5km/h 7.2mph /  11.6km/h 62% 0in /  0.0mm 278.00 W/m2 FEW
16:39 72.7 °F /  22.6 °C 59.4 °F /  15.2 °C 30in /  1016.1hPa SSE 12.7mph /  20.4km/h 8mph /  12.9km/h 63% 0in /  0.0mm 188.00 W/m2 FEW
16:44 72.3 °F /  22.4 °C 58.6 °F /  14.8 °C 30in /  1016.1hPa South 9.2mph /  14.8km/h 7.6mph /  12.2km/h 62% 0in /  0.0mm 195.00 W/m2 SCT
16:49 72.1 °F /  22.3 °C 58.8 °F /  14.9 °C 30in /  1016.0hPa South 11.5mph /  18.5km/h 7.8mph /  12.6km/h 63% 0in /  0.0mm 118.00 W/m2 SCT
16:54 72 °F /  22.2 °C 59.2 °F /  15.1 °C 30in /  1016.0hPa SSE 9.2mph /  14.8km/h 6.5mph /  10.5km/h 64% 0in /  0.0mm 141.00 W/m2 BKN
16:59 72 °F /  22.2 °C 59.5 °F /  15.3 °C 30in /  1016.1hPa SSE 10.4mph /  16.7km/h 6mph /  9.7km/h 65% 0in /  0.0mm 111.00 W/m2 BKN
17:04 71.8 °F /  22.1 °C 59.7 °F /  15.4 °C 30in /  1016.1hPa SSE 9.2mph /  14.8km/h 3.9mph /  6.3km/h 66% 0in /  0.0mm 90.00 W/m2 BKN
17:09 71.4 °F /  21.9 °C 59.5 °F /  15.3 °C 30in /  1016.0hPa SE 8.1mph /  13.0km/h 5.1mph /  8.2km/h 66% 0in /  0.0mm 77.00 W/m2 BKN
17:14 71.2 °F /  21.8 °C 59.7 °F /  15.4 °C 30in /  1015.9hPa SSE 6.9mph /  11.1km/h 5.1mph /  8.2km/h 67% 0in /  0.0mm 76.00 W/m2 BKN
17:19 71.1 °F /  21.7 °C 59.5 °F /  15.3 °C 30in /  1015.9hPa SE 6.9mph /  11.1km/h 4.3mph /  6.9km/h 67% 0in /  0.0mm 69.00 W/m2 BKN
17:24 70.9 °F /  21.6 °C 59.7 °F /  15.4 °C 30in /  1016.0hPa SSE 8.1mph /  13.0km/h 4.7mph /  7.6km/h 68% 0in /  0.0mm 158.00 W/m2 BKN
17:29 71.1 °F /  21.7 °C 59.9 °F /  15.5 °C 30in /  1015.9hPa SSE 8.1mph /  13.0km/h 5.3mph /  8.5km/h 68% 0in /  0.0mm 148.00 W/m2 BKN
17:34 71.2 °F /  21.8 °C 60.4 °F /  15.8 °C 30in /  1016.1hPa SE 8.1mph /  13.0km/h 4.7mph /  7.6km/h 69% 0in /  0.0mm 128.00 W/m2 SCT
17:39 71.2 °F /  21.8 °C 60.4 °F /  15.8 °C 30in /  1016.0hPa SE 9.2mph /  14.8km/h 6.3mph /  10.1km/h 69% 0in /  0.0mm 120.00 W/m2 SCT
17:44 71.1 °F /  21.7 °C 60.8 °F /  16.0 °C 30in /  1015.9hPa SSE 11.5mph /  18.5km/h 5.9mph /  9.5km/h 70% 0in /  0.0mm 120.00 W/m2 SCT
17:49 71.1 °F /  21.7 °C 60.6 °F /  15.9 °C 30in /  1015.9hPa SE 10mph /  16.1km/h 6.3mph /  10.1km/h 70% 0in /  0.0mm 113.00 W/m2 SCT
17:54 70.9 °F /  21.6 °C 60.6 °F /  15.9 °C 30in /  1015.9hPa SE 9.2mph /  14.8km/h 6.5mph /  10.5km/h 70% 0in /  0.0mm 81.00 W/m2 BKN
17:59 70.9 °F /  21.6 °C 60.6 °F /  15.9 °C 30in /  1015.9hPa SSE 9.2mph /  14.8km/h 7mph /  11.3km/h 70% 0in /  0.0mm 72.00 W/m2 BKN
18:04 70.9 °F /  21.6 °C 60.4 °F /  15.8 °C 30in /  1015.9hPa ESE 10mph /  16.1km/h 6.6mph /  10.6km/h 70% 0in /  0.0mm 47.00 W/m2 BKN
18:09 70.5 °F /  21.4 °C 60.6 °F /  15.9 °C 30in /  1015.9hPa SSE 11.5mph /  18.5km/h 7.1mph /  11.4km/h 71% 0in /  0.0mm 32.00 W/m2 BKN
18:14 70.3 °F /  21.3 °C 60.4 °F /  15.8 °C 30in /  1015.9hPa SSE 11.5mph /  18.5km/h 6.9mph /  11.1km/h 71% 0in /  0.0mm 19.00 W/m2 BKN
18:18 70.3 °F /  21.3 °C 60.8 °F /  16.0 °C 30in /  1015.9hPa SSE 9.2mph /  14.8km/h 6.7mph /  10.8km/h 72% 0in /  0.0mm 19.00 W/m2 BKN
19:00 70.3 °F /  21.3 °C 60.8 °F /  16.0 °C 30in /  1015.9hPa SSE 7mph /  11.3km/h 12mph /  19.3km/h 72% 0in /  0.0mm 20.00 W/m2 OVC
19:19 68.7 °F /  20.4 °C 61 °F /  16.1 °C 30in /  1016.3hPa SSE 11.5mph /  18.5km/h 8.2mph /  13.2km/h 76% 0in /  0.0mm 0.00 W/m2 CLR
19:22 68.7 °F /  20.4 °C 61 °F /  16.1 °C 30in /  1016.3hPa SSE 11.5mph /  18.5km/h 8.6mph /  13.8km/h 76% 0in /  0.0mm 0.00 W/m2 CLR
19:29 68.5 °F /  20.3 °C 61 °F /  16.1 °C 30in /  1016.1hPa SSE 11.5mph /  18.5km/h 9.2mph /  14.8km/h 77% 0in /  0.0mm 0.00 W/m2 CLR
19:34 68.5 °F /  20.3 °C 61 °F /  16.1 °C 30in /  1016.3hPa SSE 11.5mph /  18.5km/h 8.4mph /  13.5km/h 77% 0in /  0.0mm 0.00 W/m2 CLR
19:39 68.5 °F /  20.3 °C 61 °F /  16.1 °C 30in /  1016.3hPa SE 11.5mph /  18.5km/h 7.5mph /  12.1km/h 77% 0in /  0.0mm 0.00 W/m2 CLR
19:44 68.7 °F /  20.4 °C 60.8 °F /  16.0 °C 30in /  1016.4hPa SSE 11.5mph /  18.5km/h 8.6mph /  13.8km/h 76% 0in /  0.0mm 0.00 W/m2 CLR
19:49 68.7 °F /  20.4 °C 60.8 °F /  16.0 °C 30in /  1016.4hPa SE 11.5mph /  18.5km/h 9mph /  14.5km/h 76% 0in /  0.0mm 0.00 W/m2 CLR
19:54 68.5 °F /  20.3 °C 61 °F /  16.1 °C 30in /  1016.4hPa SSE 11.5mph /  18.5km/h 7.7mph /  12.4km/h 77% 0in /  0.0mm 0.00 W/m2 CLR
19:58 68.4 °F /  20.2 °C 60.8 °F /  16.0 °C 30in /  1016.3hPa SE 11.5mph /  18.5km/h 7.2mph /  11.6km/h 77% 0in /  0.0mm 0.00 W/m2 CLR
20:03 68.2 °F /  20.1 °C 60.6 °F /  15.9 °C 30in /  1016.3hPa SE 10.4mph /  16.7km/h 6.5mph /  10.5km/h 77% 0in /  0.0mm 0.00 W/m2 CLR
20:08 68.2 °F /  20.1 °C 61 °F /  16.1 °C 30in /  1016.5hPa SSE 10.4mph /  16.7km/h 6.1mph /  9.8km/h 78% 0in /  0.0mm 0.00 W/m2 CLR
20:14 67.8 °F /  19.9 °C 60.8 °F /  16.0 °C 30in /  1016.5hPa SSE 12mph /  19.3km/h 6.6mph /  10.6km/h 78% 0in /  0.0mm 0.00 W/m2 CLR
20:18 67.8 °F /  19.9 °C 60.6 °F /  15.9 °C 30in /  1016.4hPa SE 10.4mph /  16.7km/h 6.9mph /  11.1km/h 78% 0in /  0.0mm 0.00 W/m2 CLR
20:24 67.5 °F /  19.7 °C 60.8 °F /  16.0 °C 30in /  1016.5hPa SSE 11.5mph /  18.5km/h 7.4mph /  11.9km/h 79% 0in /  0.0mm 0.00 W/m2 CLR
20:28 67.5 °F /  19.7 °C 60.8 °F /  16.0 °C 30in /  1016.5hPa SSE 11.5mph /  18.5km/h 7.2mph /  11.6km/h 79% 0in /  0.0mm 0.00 W/m2 CLR
20:34 67.5 °F /  19.7 °C 60.6 °F /  15.9 °C 30in /  1016.3hPa SSE 12.7mph /  20.4km/h 8.2mph /  13.2km/h 79% 0in /  0.0mm 0.00 W/m2 CLR
20:38 67.3 °F /  19.6 °C 60.6 °F /  15.9 °C 30in /  1016.4hPa SE 12.7mph /  20.4km/h 8.9mph /  14.3km/h 79% 0in /  0.0mm 0.00 W/m2 CLR
20:44 67.5 °F /  19.7 °C 60.6 °F /  15.9 °C 30in /  1016.5hPa SSE 12mph /  19.3km/h 8.1mph /  13.0km/h 79% 0in /  0.0mm 0.00 W/m2 CLR
20:49 67.5 °F /  19.7 °C 60.6 °F /  15.9 °C 30in /  1016.5hPa South 11.5mph /  18.5km/h 7.5mph /  12.1km/h 79% 0in /  0.0mm 0.00 W/m2 CLR
20:54 67.5 °F /  19.7 °C 60.8 °F /  16.0 °C 30in /  1016.6hPa South 11.5mph /  18.5km/h 6.9mph /  11.1km/h 79% 0in /  0.0mm 0.00 W/m2 CLR
20:59 67.6 °F /  19.8 °C 61 °F /  16.1 °C 30in /  1016.5hPa SE 11.5mph /  18.5km/h 7mph /  11.3km/h 79% 0in /  0.0mm 0.00 W/m2 CLR
21:03 67.6 °F /  19.8 °C 61 °F /  16.1 °C 30in /  1016.6hPa ESE 11.5mph /  18.5km/h 7.7mph /  12.4km/h 79% 0in /  0.0mm 0.00 W/m2 CLR
21:09 67.6 °F /  19.8 °C 61 °F /  16.1 °C 30in /  1016.5hPa SSE 10.4mph /  16.7km/h 7.3mph /  11.7km/h 79% 0in /  0.0mm 0.00 W/m2 CLR
21:13 67.6 °F /  19.8 °C 61 °F /  16.1 °C 30in /  1016.6hPa SE 11.5mph /  18.5km/h 7.6mph /  12.2km/h 79% 0in /  0.0mm 0.00 W/m2 CLR
21:19 67.6 °F /  19.8 °C 61 °F /  16.1 °C 30in /  1016.5hPa SSE 13mph /  20.9km/h 7.2mph /  11.6km/h 79% 0in /  0.0mm 0.00 W/m2 CLR
21:24 67.6 °F /  19.8 °C 61 °F /  16.1 °C 30in /  1016.6hPa SSE 11.5mph /  18.5km/h 7.5mph /  12.1km/h 79% 0in /  0.0mm 0.00 W/m2 CLR
21:28 67.6 °F /  19.8 °C 61 °F /  16.1 °C 30in /  1016.6hPa SSE 11.5mph /  18.5km/h 8.9mph /  14.3km/h 79% 0in /  0.0mm 0.00 W/m2 CLR
21:33 67.6 °F /  19.8 °C 61 °F /  16.1 °C 30in /  1016.7hPa SE 11.5mph /  18.5km/h 7.8mph /  12.6km/h 79% 0in /  0.0mm 0.00 W/m2 CLR
21:38 67.5 °F /  19.7 °C 60.6 °F /  15.9 °C 30in /  1016.7hPa SSE 11.5mph /  18.5km/h 6.6mph /  10.6km/h 79% 0in /  0.0mm 0.00 W/m2 CLR
21:44 67.5 °F /  19.7 °C 60.6 °F /  15.9 °C 30in /  1016.6hPa SE 12.7mph /  20.4km/h 8.1mph /  13.0km/h 79% 0in /  0.0mm 0.00 W/m2 CLR
21:49 67.3 °F /  19.6 °C 60.6 °F /  15.9 °C 30in /  1016.5hPa SE 12.7mph /  20.4km/h 8.8mph /  14.2km/h 79% 0in /  0.0mm 0.00 W/m2 CLR
21:54 67.3 °F /  19.6 °C 60.6 °F /  15.9 °C 30in /  1016.5hPa SSE 12.7mph /  20.4km/h 9.2mph /  14.8km/h 79% 0in /  0.0mm 0.00 W/m2 CLR
21:59 67.3 °F /  19.6 °C 60.6 °F /  15.9 °C 30in /  1016.6hPa SE 12.7mph /  20.4km/h 9.6mph /  15.4km/h 79% 0in /  0.0mm 0.00 W/m2 CLR
22:04 67.5 °F /  19.7 °C 60.6 °F /  15.9 °C 30in /  1016.7hPa SSE 12.7mph /  20.4km/h 9.4mph /  15.1km/h 79% 0in /  0.0mm 0.00 W/m2 CLR
22:07 67.3 °F /  19.6 °C 60.6 °F /  15.9 °C 30in /  1016.8hPa SSE 12.7mph /  20.4km/h 8.7mph /  14.0km/h 79% 0in /  0.0mm 0.00 W/m2 CLR
22:13 67.5 °F /  19.7 °C 60.6 °F /  15.9 °C 30in /  1016.9hPa SSE 13mph /  20.9km/h 9.5mph /  15.3km/h 79% 0in /  0.0mm 0.00 W/m2 CLR
22:19 67.5 °F /  19.7 °C 60.4 °F /  15.8 °C 30in /  1017.0hPa SSE 11.5mph /  18.5km/h 9.4mph /  15.1km/h 78% 0in /  0.0mm 0.00 W/m2 CLR
22:24 67.6 °F /  19.8 °C 60.4 °F /  15.8 °C 30in /  1017.0hPa SSE 12mph /  19.3km/h 8.4mph /  13.5km/h 78% 0in /  0.0mm 0.00 W/m2 CLR
22:28 67.6 °F /  19.8 °C 60.4 °F /  15.8 °C 30in /  1017.0hPa SSE 12.7mph /  20.4km/h 7.9mph /  12.7km/h 78% 0in /  0.0mm 0.00 W/m2 CLR
22:34 67.6 °F /  19.8 °C 60.4 °F /  15.8 °C 30in /  1016.9hPa SSE 12.7mph /  20.4km/h 8.1mph /  13.0km/h 78% 0in /  0.0mm 0.00 W/m2 CLR
22:38 67.6 °F /  19.8 °C 60.4 °F /  15.8 °C 30in /  1017.0hPa South 13mph /  20.9km/h 8.3mph /  13.4km/h 78% 0in /  0.0mm 0.00 W/m2 CLR
22:43 67.5 °F /  19.7 °C 60.4 °F /  15.8 °C 30in /  1016.9hPa SSE 12.7mph /  20.4km/h 8.7mph /  14.0km/h 78% 0in /  0.0mm 0.00 W/m2 CLR
22:48 67.5 °F /  19.7 °C 60.3 °F /  15.7 °C 30in /  1017.0hPa South 12.7mph /  20.4km/h 9.1mph /  14.6km/h 78% 0in /  0.0mm 0.00 W/m2 CLR
22:53 67.5 °F /  19.7 °C 60.3 °F /  15.7 °C 30in /  1017.1hPa South 11.5mph /  18.5km/h 8.4mph /  13.5km/h 78% 0in /  0.0mm 0.00 W/m2 CLR
22:58 67.3 °F /  19.6 °C 60.1 °F /  15.6 °C 30in /  1017.2hPa SSE 11.5mph /  18.5km/h 7.9mph /  12.7km/h 78% 0in /  0.0mm 0.00 W/m2 CLR
23:04 67.1 °F /  19.5 °C 60.4 °F /  15.8 °C 30in /  1017.0hPa SSE 10.4mph /  16.7km/h 7.7mph /  12.4km/h 79% 0in /  0.0mm 0.00 W/m2 CLR
23:09 66.9 °F /  19.4 °C 60.3 °F /  15.7 °C 30in /  1017.1hPa SSE 10.4mph /  16.7km/h 8.2mph /  13.2km/h 79% 0in /  0.0mm 0.00 W/m2 CLR
23:13 66.7 °F /  19.3 °C 60.1 °F /  15.6 °C 30in /  1016.9hPa SSE 10.4mph /  16.7km/h 7.8mph /  12.6km/h 79% 0in /  0.0mm 0.00 W/m2 CLR
23:18 66.7 °F /  19.3 °C 60.1 °F /  15.6 °C 30in /  1016.9hPa SSE 9.2mph /  14.8km/h 7.2mph /  11.6km/h 79% 0in /  0.0mm 0.00 W/m2 CLR
23:23 66.7 °F /  19.3 °C 60.1 °F /  15.6 °C 30in /  1016.9hPa SSE 9.2mph /  14.8km/h 6.9mph /  11.1km/h 79% 0in /  0.0mm 0.00 W/m2 CLR
23:29 66.6 °F /  19.2 °C 59.7 °F /  15.4 °C 30in /  1016.9hPa South 11mph /  17.7km/h 7.5mph /  12.1km/h 79% 0in /  0.0mm 0.00 W/m2 CLR
23:33 66.4 °F /  19.1 °C 59.7 °F /  15.4 °C 30in /  1016.8hPa SSE 9.2mph /  14.8km/h 7.5mph /  12.1km/h 79% 0in /  0.0mm 0.00 W/m2 CLR
23:38 66.4 °F /  19.1 °C 59.9 °F /  15.5 °C 30in /  1016.8hPa SSE 11.5mph /  18.5km/h 6.9mph /  11.1km/h 80% 0in /  0.0mm 0.00 W/m2 CLR
23:44 66 °F /  18.9 °C 59.7 °F /  15.4 °C 30in /  1016.8hPa SSE 11.5mph /  18.5km/h 6.2mph /  10.0km/h 80% 0in /  0.0mm 0.00 W/m2 CLR
23:49 65.8 °F /  18.8 °C 59.5 °F /  15.3 °C 30in /  1016.8hPa South 9.2mph /  14.8km/h 5.3mph /  8.5km/h 80% 0in /  0.0mm 0.00 W/m2 CLR
23:54 65.8 °F /  18.8 °C 59.5 °F /  15.3 °C 30in /  1016.8hPa SSE 6.9mph /  11.1km/h 4.9mph /  7.9km/h 80% 0in /  0.0mm 0.00 W/m2 CLR
23:58 65.7 °F /  18.7 °C 59.5 °F /  15.3 °C 30in /  1016.8hPa SSE 5.8mph /  9.3km/h 4.8mph /  7.7km/h 81% 0in /  0.0mm 0.00 W/m2 CLR
Juneau County Weather